createdAt,value
2023-08-28T00:03:57.608Z,17.80
2023-08-28T00:07:52.710Z,17.68
2023-08-28T00:11:19.133Z,17.55
2023-08-28T00:14:56.213Z,17.48
2023-08-28T00:18:36.151Z,17.45
2023-08-28T00:22:11.179Z,17.41
2023-08-28T00:25:48.795Z,17.37
2023-08-28T00:29:26.477Z,17.28
2023-08-28T00:33:05.028Z,17.15
2023-08-28T00:36:41.978Z,17.00
2023-08-28T00:40:20.930Z,16.95
2023-08-28T00:43:57.208Z,16.88
2023-08-28T00:47:36.681Z,16.77
2023-08-28T00:51:12.695Z,16.73
2023-08-28T00:55:09.778Z,16.74
2023-08-28T00:58:35.019Z,16.68
2023-08-28T01:02:13.264Z,16.61
2023-08-28T01:06:32.350Z,16.64
2023-08-28T01:10:19.463Z,16.60
2023-08-28T01:14:25.739Z,16.54
2023-08-28T01:17:59.985Z,16.55
2023-08-28T01:21:29.385Z,16.64
2023-08-28T01:25:12.029Z,16.69
2023-08-28T01:28:44.815Z,16.63
2023-08-28T01:32:22.444Z,16.56
2023-08-28T01:36:31.584Z,16.58
2023-08-28T01:40:04.475Z,16.61
2023-08-28T01:43:40.043Z,16.62
2023-08-28T01:47:33.060Z,16.66
2023-08-28T01:50:58.452Z,16.75
2023-08-28T01:54:36.081Z,16.87
2023-08-28T01:58:34.752Z,16.88
2023-08-28T02:02:00.951Z,16.78
2023-08-28T02:05:39.707Z,16.61
2023-08-28T02:09:35.100Z,16.47
2023-08-28T02:13:01.207Z,16.45
2023-08-28T02:16:57.634Z,16.49
2023-08-28T02:20:46.139Z,16.53
2023-08-28T02:24:11.708Z,16.51
2023-08-28T02:27:49.331Z,16.51
2023-08-28T02:31:46.026Z,16.60
2023-08-28T02:35:15.113Z,16.70
2023-08-28T02:38:49.377Z,16.77
2023-08-28T02:42:26.878Z,16.71
2023-08-28T02:46:04.688Z,16.63
2023-08-28T02:49:42.052Z,16.64
2023-08-28T02:53:19.763Z,16.61
2023-08-28T02:56:57.311Z,16.57
2023-08-28T03:00:39.366Z,16.57
2023-08-28T03:04:12.707Z,16.61
2023-08-28T03:07:50.637Z,16.65
2023-08-28T03:11:28.108Z,16.59
2023-08-28T03:15:06.794Z,16.58
2023-08-28T03:18:46.749Z,16.62
2023-08-28T03:22:21.331Z,16.62
2023-08-28T03:25:58.819Z,16.64
2023-08-28T03:29:36.671Z,16.60
2023-08-28T03:33:14.130Z,16.57
2023-08-28T03:36:53.845Z,16.57
2023-08-28T03:40:31.034Z,16.65
2023-08-28T03:44:07.536Z,16.77
2023-08-28T03:47:49.973Z,16.86
2023-08-28T03:51:23.297Z,16.92
2023-08-28T03:55:19.379Z,16.95
2023-08-28T03:58:44.948Z,16.87
2023-08-28T04:02:22.986Z,16.79
2023-08-28T04:06:00.523Z,16.79
2023-08-28T04:09:56.964Z,16.89
2023-08-28T04:13:22.327Z,16.85
2023-08-28T04:16:59.693Z,16.84
2023-08-28T04:20:37.634Z,16.90
2023-08-28T04:24:34.282Z,16.96
2023-08-28T04:28:00.762Z,16.98
2023-08-28T04:31:38.408Z,16.93
2023-08-28T04:35:16.115Z,16.91
2023-08-28T04:38:53.737Z,16.84
2023-08-28T04:42:50.422Z,16.81
2023-08-28T04:46:15.743Z,16.86
2023-08-28T04:49:53.746Z,16.82
2023-08-28T04:53:31.196Z,16.77
2023-08-28T04:57:09.301Z,16.73
2023-08-28T05:01:05.353Z,16.74
2023-08-28T05:04:32.865Z,16.81
2023-08-28T05:08:28.823Z,16.82
2023-08-28T05:12:12.857Z,16.80
2023-08-28T05:15:38.157Z,16.80
2023-08-28T05:19:15.892Z,16.84
2023-08-28T05:22:53.548Z,16.80
2023-08-28T05:26:31.375Z,16.84
2023-08-28T05:30:09.424Z,17.02
2023-08-28T05:33:46.734Z,17.03
2023-08-28T05:37:46.307Z,17.05
2023-08-28T05:41:11.355Z,16.98
2023-08-28T05:44:49.039Z,17.09
2023-08-28T05:48:27.106Z,17.15
2023-08-28T05:52:05.486Z,17.12
2023-08-28T05:56:01.178Z,17.11
2023-08-28T05:59:26.558Z,17.09
2023-08-28T06:03:25.263Z,17.06
2023-08-28T06:07:09.525Z,16.94
2023-08-28T06:10:39.985Z,16.77
2023-08-28T06:14:13.518Z,16.73
2023-08-28T06:18:09.763Z,16.69
2023-08-28T06:21:54.164Z,16.71
2023-08-28T06:25:19.944Z,16.80
2023-08-28T06:29:17.539Z,16.93
2023-08-28T06:33:05.204Z,17.08
2023-08-28T06:36:32.531Z,17.18
2023-08-28T06:40:10.830Z,17.30
2023-08-28T06:44:06.506Z,17.39
2023-08-28T06:47:51.171Z,17.41
2023-08-28T06:51:19.772Z,17.43
2023-08-28T06:54:55.192Z,17.42
2023-08-28T06:58:32.796Z,17.43
2023-08-28T07:02:10.156Z,17.39
2023-08-28T07:05:47.445Z,17.30
2023-08-28T07:09:45.101Z,17.26
2023-08-28T07:13:10.973Z,17.18
2023-08-28T07:16:48.946Z,17.10
2023-08-28T07:20:26.741Z,17.12
2023-08-28T07:24:04.680Z,17.12
2023-08-28T07:27:42.010Z,17.10
2023-08-28T07:31:20.120Z,17.13
2023-08-28T07:34:57.172Z,17.16
2023-08-28T07:38:35.081Z,17.19
2023-08-28T07:42:12.485Z,17.26
2023-08-28T07:45:50.206Z,17.31
2023-08-28T07:49:28.490Z,17.45
2023-08-28T07:53:06.014Z,17.53
2023-08-28T07:56:43.148Z,17.48
2023-08-28T08:00:42.007Z,17.44
2023-08-28T08:04:10.613Z,17.44
2023-08-28T08:07:48.929Z,17.35
2023-08-28T08:11:26.867Z,17.47
2023-08-28T08:15:04.295Z,17.49
2023-08-28T08:19:01.331Z,17.49
2023-08-28T08:22:29.872Z,17.66
2023-08-28T08:26:08.442Z,17.83
2023-08-28T08:29:46.500Z,17.92
2023-08-28T08:33:44.691Z,17.81
2023-08-28T08:37:10.809Z,17.84
2023-08-28T08:40:52.957Z,17.93
2023-08-28T08:44:45.122Z,18.10
2023-08-28T08:48:34.901Z,18.07
2023-08-28T08:52:06.021Z,18.09
2023-08-28T08:55:46.816Z,18.02
2023-08-28T08:59:19.540Z,18.01
2023-08-28T09:02:59.638Z,17.95
2023-08-28T09:06:52.253Z,17.91
2023-08-28T09:10:20.367Z,17.90
2023-08-28T09:13:58.019Z,17.95
2023-08-28T09:17:41.233Z,18.05
2023-08-28T09:21:14.844Z,18.09
2023-08-28T09:24:55.242Z,18.03
2023-08-28T09:28:29.043Z,18.17
2023-08-28T09:32:29.252Z,18.27
2023-08-28T09:35:59.470Z,18.35
2023-08-28T09:39:33.518Z,18.31
2023-08-28T09:43:29.976Z,18.21
2023-08-28T09:46:57.630Z,18.15
2023-08-28T09:50:35.239Z,18.11
2023-08-28T09:54:12.299Z,18.30
2023-08-28T09:58:11.507Z,18.28
2023-08-28T10:02:09.109Z,18.42
2023-08-28T10:05:45.302Z,18.42
2023-08-28T10:09:53.172Z,18.52
2023-08-28T10:13:23.940Z,18.56
2023-08-28T10:16:58.548Z,18.53
2023-08-28T10:20:35.673Z,18.32
2023-08-28T10:24:15.089Z,18.30
2023-08-28T10:28:10.662Z,18.22
2023-08-28T10:31:59.467Z,18.22
2023-08-28T10:35:27.802Z,18.33
2023-08-28T10:39:09.666Z,18.35
2023-08-28T10:42:42.886Z,18.35
2023-08-28T10:46:22.484Z,18.29
2023-08-28T10:49:57.860Z,18.24
2023-08-28T10:53:35.022Z,18.31
2023-08-28T10:57:47.665Z,18.37
2023-08-28T11:01:16.770Z,18.28
2023-08-28T11:05:14.598Z,18.26
2023-08-28T11:09:30.777Z,18.32
2023-08-28T11:13:24.561Z,18.35
2023-08-28T11:17:21.167Z,18.53
2023-08-28T11:21:01.734Z,18.59
2023-08-28T11:24:52.957Z,18.68
2023-08-28T11:28:31.979Z,18.80
2023-08-28T11:31:59.741Z,18.72
2023-08-28T11:36:03.457Z,18.85
2023-08-28T11:39:29.353Z,18.53
2023-08-28T11:43:26.406Z,18.58
2023-08-28T11:46:52.383Z,18.51
2023-08-28T11:50:29.756Z,18.42
2023-08-28T11:54:27.081Z,18.54
2023-08-28T11:57:52.910Z,18.78
2023-08-28T12:01:30.907Z,18.96
2023-08-28T12:05:11.201Z,18.98
2023-08-28T12:08:47.571Z,18.85
2023-08-28T12:12:32.267Z,18.94
2023-08-28T12:16:11.163Z,19.05
2023-08-28T12:19:41.611Z,19.24
2023-08-28T12:23:18.477Z,19.22
2023-08-28T12:26:57.608Z,19.01
2023-08-28T12:30:36.406Z,18.88
2023-08-28T12:34:31.240Z,18.94
2023-08-28T12:38:02.560Z,18.88
2023-08-28T12:41:36.467Z,18.85
2023-08-28T12:45:12.919Z,18.92
2023-08-28T12:49:11.548Z,18.82
2023-08-28T12:52:36.587Z,18.72
2023-08-28T12:56:35.813Z,18.72
2023-08-28T13:00:01.769Z,18.76
2023-08-28T13:03:39.938Z,18.72
2023-08-28T13:07:18.636Z,18.93
2023-08-28T13:11:15.257Z,19.16
2023-08-28T13:15:00.954Z,19.21
2023-08-28T13:18:27.393Z,19.26
2023-08-28T13:22:05.086Z,19.12
2023-08-28T13:25:42.731Z,19.09
2023-08-28T13:29:20.241Z,19.15
2023-08-28T13:32:59.853Z,19.15
2023-08-28T13:36:43.502Z,19.03
2023-08-28T13:40:13.490Z,19.09
2023-08-28T13:43:50.963Z,19.10
2023-08-28T13:47:47.865Z,19.12
2023-08-28T13:51:15.072Z,19.17
2023-08-28T13:54:53.138Z,19.21
2023-08-28T13:58:32.651Z,19.22
2023-08-28T14:02:08.597Z,19.28
2023-08-28T14:06:08.735Z,19.27
2023-08-28T14:09:55.799Z,19.18
2023-08-28T14:13:40.299Z,19.10
2023-08-28T14:17:07.452Z,19.06
2023-08-28T14:20:44.188Z,18.98
2023-08-28T14:24:40.314Z,18.94
2023-08-28T14:28:20.855Z,18.91
2023-08-28T14:31:49.076Z,18.95
2023-08-28T14:35:26.221Z,19.01
2023-08-28T14:39:22.930Z,19.02
2023-08-28T14:42:53.472Z,18.84
2023-08-28T14:46:26.683Z,18.72
2023-08-28T14:50:04.669Z,18.71
2023-08-28T14:53:42.173Z,18.68
2023-08-28T14:57:19.913Z,18.66
2023-08-28T15:00:57.697Z,18.61
2023-08-28T15:04:54.179Z,18.54
2023-08-28T15:08:20.570Z,18.44
2023-08-28T15:12:18.422Z,18.42
2023-08-28T15:16:07.181Z,18.41
2023-08-28T15:19:55.729Z,18.48
2023-08-28T15:23:40.120Z,18.47
2023-08-28T15:27:05.707Z,18.33
2023-08-28T15:31:01.926Z,18.21
2023-08-28T15:34:27.359Z,18.11
2023-08-28T15:38:05.581Z,18.09
2023-08-28T15:41:43.219Z,18.06
2023-08-28T15:45:20.676Z,18.01
2023-08-28T15:49:18.339Z,18.01
2023-08-28T15:52:44.406Z,17.98
2023-08-28T15:56:24.462Z,17.98
2023-08-28T15:59:59.507Z,18.02
2023-08-28T16:03:37.476Z,18.03
2023-08-28T16:07:15.127Z,18.02
2023-08-28T16:10:52.515Z,17.95
2023-08-28T16:14:30.455Z,17.86
2023-08-28T16:18:26.604Z,17.85
2023-08-28T16:22:12.131Z,17.89
2023-08-28T16:25:57.122Z,17.85
2023-08-28T16:29:41.278Z,17.88
2023-08-28T16:33:25.338Z,17.87
2023-08-28T16:36:50.970Z,17.76
2023-08-28T16:40:29.695Z,17.76
2023-08-28T16:44:07.189Z,17.75
2023-08-28T16:47:46.177Z,17.75
2023-08-28T16:51:42.266Z,17.61
2023-08-28T16:55:08.509Z,17.56
2023-08-28T16:58:45.625Z,17.54
2023-08-28T17:02:23.241Z,17.54
2023-08-28T17:06:21.891Z,17.46
2023-08-28T17:09:48.263Z,17.40
2023-08-28T17:13:26.099Z,17.41
2023-08-28T17:17:04.461Z,17.30
2023-08-28T17:21:00.237Z,17.22
2023-08-28T17:24:25.608Z,17.14
2023-08-28T17:28:03.667Z,17.07
2023-08-28T17:32:00.113Z,17.04
2023-08-28T17:35:25.534Z,16.97
2023-08-28T17:39:25.924Z,16.93
2023-08-28T17:42:51.374Z,16.94
2023-08-28T17:46:28.904Z,16.94
2023-08-28T17:50:25.842Z,16.92
2023-08-28T17:54:10.581Z,16.95
2023-08-28T17:57:35.992Z,16.91
2023-08-28T18:01:13.533Z,16.77
2023-08-28T18:05:11.068Z,16.69
2023-08-28T18:08:37.038Z,16.62
2023-08-28T18:12:14.722Z,16.63
2023-08-28T18:16:16.648Z,16.61
2023-08-28T18:19:43.708Z,16.58
2023-08-28T18:23:20.912Z,16.60
2023-08-28T18:26:58.415Z,16.54
2023-08-28T18:30:54.829Z,16.47
2023-08-28T18:34:40.764Z,16.42
2023-08-28T18:38:08.438Z,16.32
2023-08-28T18:42:09.426Z,16.32
2023-08-28T18:45:36.129Z,16.23
2023-08-28T18:49:13.474Z,16.22
2023-08-28T18:52:51.334Z,16.18
2023-08-28T18:56:28.878Z,16.13
2023-08-28T19:00:06.988Z,16.11
2023-08-28T19:03:44.220Z,16.09
2023-08-28T19:07:21.731Z,16.03
2023-08-28T19:11:01.329Z,16.01
2023-08-28T19:14:36.913Z,16.06
2023-08-28T19:18:17.233Z,16.07
2023-08-28T19:22:11.485Z,16.04
2023-08-28T19:25:40.878Z,16.00
2023-08-28T19:29:33.146Z,15.96
2023-08-28T19:33:20.576Z,15.93
2023-08-28T19:37:06.445Z,15.95
2023-08-28T19:40:50.964Z,15.90
2023-08-28T19:44:35.236Z,15.88
2023-08-28T19:48:00.861Z,15.88
2023-08-28T19:51:57.964Z,15.88
2023-08-28T19:55:23.466Z,15.92
2023-08-28T19:59:20.254Z,15.91
2023-08-28T20:03:05.920Z,15.96
2023-08-28T20:06:52.532Z,15.97
2023-08-28T20:10:41.510Z,15.97
2023-08-28T20:14:27.817Z,15.97
2023-08-28T20:17:53.889Z,16.00
2023-08-28T20:21:31.612Z,15.99
2023-08-28T20:25:09.217Z,16.01
2023-08-28T20:28:46.567Z,16.03
2023-08-28T20:32:43.340Z,16.04
2023-08-28T20:36:08.679Z,16.02
2023-08-28T20:40:06.535Z,15.99
2023-08-28T20:43:32.079Z,15.97
2023-08-28T20:47:36.262Z,15.96
2023-08-28T20:51:18.618Z,15.97
2023-08-28T20:54:43.674Z,15.97
2023-08-28T20:58:22.806Z,15.99
2023-08-28T21:01:59.290Z,16.00
2023-08-28T21:05:38.719Z,16.02
2023-08-28T21:09:33.553Z,16.04
2023-08-28T21:12:58.808Z,16.04
2023-08-28T21:16:56.685Z,16.06
2023-08-28T21:20:43.198Z,16.12
2023-08-28T21:24:11.699Z,16.16
2023-08-28T21:27:49.424Z,16.20
2023-08-28T21:31:47.786Z,16.25
2023-08-28T21:35:35.873Z,16.26
2023-08-28T21:39:02.017Z,16.26
2023-08-28T21:42:40.276Z,16.26
2023-08-28T21:46:37.690Z,16.29
2023-08-28T21:50:22.014Z,16.31
2023-08-28T21:54:08.376Z,16.34
2023-08-28T21:57:56.144Z,16.40
2023-08-28T22:01:42.673Z,16.43
2023-08-28T22:05:47.037Z,16.46
2023-08-28T22:09:31.886Z,16.47
2023-08-28T22:13:29.667Z,16.46
2023-08-28T22:16:55.550Z,16.46
2023-08-28T22:20:53.032Z,16.48
2023-08-28T22:24:19.582Z,16.51
2023-08-28T22:28:15.872Z,16.56
2023-08-28T22:32:00.239Z,16.60
2023-08-28T22:35:25.524Z,16.64
2023-08-28T22:39:03.597Z,16.67
2023-08-28T22:42:59.990Z,16.70
2023-08-28T22:46:44.271Z,16.78
2023-08-28T22:50:09.960Z,16.86
2023-08-28T22:53:48.020Z,16.90
2023-08-28T22:57:25.483Z,16.97
2023-08-28T23:01:23.327Z,17.03
2023-08-28T23:05:10.936Z,17.08
2023-08-28T23:08:37.067Z,17.11
2023-08-28T23:12:34.117Z,17.15
2023-08-28T23:15:59.622Z,17.21
2023-08-28T23:19:56.227Z,17.25
2023-08-28T23:23:22.565Z,17.27
2023-08-28T23:27:03.086Z,17.28
2023-08-28T23:30:37.202Z,17.34
2023-08-28T23:34:14.937Z,17.32
2023-08-28T23:37:52.704Z,17.37
2023-08-28T23:41:30.166Z,17.43
2023-08-28T23:45:08.151Z,17.51
2023-08-28T23:48:45.368Z,17.53
2023-08-28T23:52:25.842Z,17.44
2023-08-28T23:56:19.735Z,17.32
2023-08-28T23:59:46.133Z,17.28
